Time;durP1;ratioP1;P1;durP2;ratioP2;P2;SDS_P1;SDS_P2;PMS_P1;PMS_P2;Temp;Humidity;BMP_temperature;BMP_pressure;BME280_temperature;BME280_humidity;BME280_pressure;Samples;Min_cycle;Max_cycle;Signal;HPM_P1;HPM_P2
2024/04/10 00:00:12;;;;;;;12.43;2.90;;;11.60;99.90;;;;;;4494618;26;20011;-71
2024/04/10 00:02:13;;;;;;;7.80;2.95;;;11.60;99.90;;;;;;4493218;26;20006;-71
2024/04/10 00:04:13;;;;;;;16.13;3.03;;;11.50;99.90;;;;;;4488137;26;20018;-69
2024/04/10 00:06:14;;;;;;;8.68;2.50;;;11.60;99.90;;;;;;4488294;26;20007;-70
2024/04/10 00:08:14;;;;;;;9.18;2.40;;;11.60;99.90;;;;;;4486379;26;20069;-70
2024/04/10 00:10:15;;;;;;;9.55;2.60;;;11.60;99.90;;;;;;4476130;26;20024;-71
2024/04/10 00:12:16;;;;;;;15.82;2.88;;;11.60;99.90;;;;;;4484914;26;20080;-71
2024/04/10 00:14:16;;;;;;;10.25;2.88;;;11.60;99.90;;;;;;4485537;26;20030;-70
2024/04/10 00:16:17;;;;;;;10.77;2.67;;;11.50;99.90;;;;;;4481591;26;20360;-70
2024/04/10 00:18:18;;;;;;;16.98;2.95;;;11.50;99.90;;;;;;4500991;26;20007;-71
2024/04/10 00:20:19;;;;;;;12.57;2.70;;;11.40;99.90;;;;;;4487361;26;20447;-71
2024/04/10 00:22:19;;;;;;;10.85;3.00;;;11.40;99.90;;;;;;4515565;26;20018;-71
2024/04/10 00:24:20;;;;;;;8.75;2.40;;;11.40;99.90;;;;;;4487231;26;20007;-71
2024/04/10 00:26:20;;;;;;;8.88;2.33;;;11.40;99.90;;;;;;4476430;26;20084;-71
2024/04/10 00:28:22;;;;;;;9.70;2.75;;;11.50;99.90;;;;;;4493504;26;20019;-71
2024/04/10 00:30:22;;;;;;;7.65;2.33;;;11.40;99.90;;;;;;4474165;26;20030;-71
2024/04/10 00:32:25;;;;;;;11.48;2.38;;;11.40;99.90;;;;;;4486249;26;20006;-70
2024/04/10 00:34:26;;;;;;;8.45;2.42;;;11.40;99.90;;;;;;4480040;26;20452;-71
2024/04/10 00:36:26;;;;;;;11.60;2.83;;;11.40;99.90;;;;;;4498965;26;20025;-71
2024/04/10 00:38:29;;;;;;;13.63;2.58;;;11.40;99.90;;;;;;4503840;26;20062;-69
2024/04/10 00:40:29;;;;;;;9.40;2.63;;;11.30;99.90;;;;;;4537651;26;20006;-71
2024/04/10 00:42:30;;;;;;;11.70;2.42;;;11.30;99.90;;;;;;4493077;26;20051;-71
2024/04/10 00:44:30;;;;;;;16.77;2.80;;;11.30;99.90;;;;;;4479185;26;20015;-71
2024/04/10 00:46:32;;;;;;;12.68;2.75;;;11.30;99.90;;;;;;4481255;26;20019;-70
2024/04/10 00:48:33;;;;;;;6.30;1.92;;;11.30;99.90;;;;;;4482224;26;20381;-66
2024/04/10 00:50:33;;;;;;;6.97;2.15;;;11.30;99.90;;;;;;4477847;26;20084;-66
2024/04/10 00:52:36;;;;;;;5.43;1.80;;;11.30;99.90;;;;;;4463542;26;20034;-66
2024/04/10 00:54:38;;;;;;;7.00;2.17;;;11.30;99.90;;;;;;4451796;26;20011;-66
2024/04/10 00:56:38;;;;;;;13.38;2.83;;;11.30;99.90;;;;;;4462610;26;20072;-66
2024/04/10 00:58:39;;;;;;;14.20;2.85;;;11.20;99.90;;;;;;4469331;26;20496;-66
2024/04/10 01:00:41;;;;;;;10.18;2.35;;;11.20;99.90;;;;;;4467574;26;20471;-67
2024/04/10 01:02:41;;;;;;;9.02;2.28;;;11.20;99.90;;;;;;4462867;25;20008;-66
2024/04/10 01:04:42;;;;;;;7.40;2.20;;;11.10;99.90;;;;;;4457891;26;20094;-66
2024/04/10 01:06:42;;;;;;;9.07;2.72;;;11.10;99.90;;;;;;4461430;26;20003;-66
2024/04/10 01:08:43;;;;;;;10.57;2.55;;;11.10;99.90;;;;;;4457380;26;20012;-66
2024/04/10 01:10:43;;;;;;;9.32;2.20;;;11.10;99.90;;;;;;4466451;26;20004;-66
2024/04/10 01:12:45;;;;;;;9.02;2.40;;;11.10;99.90;;;;;;4463979;26;20019;-66
2024/04/10 01:14:47;;;;;;;15.00;2.58;;;11.10;99.90;;;;;;4453955;26;20023;-66
2024/04/10 01:16:47;;;;;;;9.43;2.90;;;11.00;99.90;;;;;;4460367;26;20063;-66
2024/04/10 01:18:50;;;;;;;10.75;2.70;;;11.10;99.90;;;;;;4470543;26;20714;-66
2024/04/10 01:20:51;;;;;;;13.10;2.78;;;11.10;99.90;;;;;;4467192;26;20016;-67
2024/04/10 01:22:51;;;;;;;9.77;2.63;;;11.10;99.90;;;;;;4481027;26;20035;-66
2024/04/10 01:24:52;;;;;;;8.48;2.40;;;11.00;99.90;;;;;;4461086;26;20088;-66
2024/04/10 01:26:52;;;;;;;11.85;3.15;;;11.00;99.90;;;;;;4451102;26;20019;-66
2024/04/10 01:28:53;;;;;;;8.45;2.67;;;11.00;99.90;;;;;;4458657;26;20081;-66
2024/04/10 01:30:54;;;;;;;9.45;2.25;;;11.00;99.90;;;;;;4449448;26;20377;-66
2024/04/10 01:32:54;;;;;;;8.20;1.90;;;11.00;99.90;;;;;;4469801;26;20031;-66
2024/04/10 01:34:55;;;;;;;13.45;2.60;;;11.00;99.90;;;;;;4463032;26;20035;-66
2024/04/10 01:36:55;;;;;;;10.98;2.47;;;10.80;99.90;;;;;;4461333;26;20017;-66
2024/04/10 01:38:56;;;;;;;7.60;2.35;;;10.90;99.90;;;;;;4458341;25;20497;-66
2024/04/10 01:40:57;;;;;;;11.57;2.75;;;10.90;99.90;;;;;;4468583;25;20008;-66
2024/04/10 01:42:57;;;;;;;10.93;2.78;;;10.90;99.90;;;;;;4473390;26;20053;-66
2024/04/10 01:44:59;;;;;;;11.60;2.55;;;10.90;99.90;;;;;;4469472;26;20047;-66
2024/04/10 01:46:59;;;;;;;10.68;2.60;;;10.80;99.90;;;;;;4459242;26;20473;-66
2024/04/10 01:49:00;;;;;;;9.45;2.28;;;10.90;99.90;;;;;;4465221;26;20015;-66
2024/04/10 01:51:00;;;;;;;12.05;2.25;;;10.80;99.90;;;;;;4456772;26;20480;-66
2024/04/10 01:53:01;;;;;;;11.15;2.65;;;10.80;99.90;;;;;;4470771;26;20079;-66
2024/04/10 01:55:02;;;;;;;17.27;3.30;;;10.80;99.90;;;;;;4479042;26;20011;-66
2024/04/10 01:57:03;;;;;;;10.65;2.20;;;10.80;99.90;;;;;;4506615;26;20077;-64
2024/04/10 01:59:03;;;;;;;11.07;2.45;;;10.80;99.90;;;;;;4481409;26;20012;-63
2024/04/10 02:01:04;;;;;;;12.35;2.60;;;10.80;99.90;;;;;;4472952;26;20026;-62
2024/04/10 02:03:04;;;;;;;9.88;2.33;;;10.70;99.90;;;;;;4474724;26;20057;-63
2024/04/10 02:05:05;;;;;;;9.38;2.03;;;10.70;99.90;;;;;;4479310;26;20575;-64
2024/04/10 02:07:06;;;;;;;8.63;2.72;;;10.70;99.90;;;;;;4479443;26;20018;-63
2024/04/10 02:09:06;;;;;;;9.02;2.35;;;10.60;99.90;;;;;;4474413;26;20397;-63
2024/04/10 02:13:26;;;;;;;9.50;2.72;;;10.70;99.90;;;;;;4464616;25;20015;-62
2024/04/10 02:15:27;;;;;;;9.45;2.75;;;10.70;99.90;;;;;;4455300;26;20012;-63
2024/04/10 02:17:27;;;;;;;9.85;3.05;;;10.60;99.90;;;;;;4467319;26;20110;-62
2024/04/10 02:19:28;;;;;;;8.52;2.00;;;10.60;99.90;;;;;;4465783;26;20014;-65
2024/04/10 02:21:29;;;;;;;8.48;2.40;;;10.60;99.90;;;;;;4456294;26;20435;-63
2024/04/10 02:23:29;;;;;;;9.95;2.40;;;10.60;99.90;;;;;;4478882;26;20043;-63
2024/04/10 02:25:32;;;;;;;12.00;2.80;;;10.50;99.90;;;;;;4455743;26;20134;-63
2024/04/10 02:27:33;;;;;;;10.57;2.72;;;10.60;99.90;;;;;;4470992;26;20011;-63
2024/04/10 02:29:34;;;;;;;11.45;2.33;;;10.60;99.90;;;;;;4465606;26;20438;-63
2024/04/10 02:31:35;;;;;;;6.30;1.85;;;10.60;99.90;;;;;;4468831;26;20039;-63
2024/04/10 02:33:38;;;;;;;13.55;2.97;;;10.60;99.90;;;;;;4457531;26;20019;-63
2024/04/10 02:35:39;;;;;;;13.05;2.50;;;10.60;99.90;;;;;;4465272;26;20016;-63
2024/04/10 02:37:39;;;;;;;10.65;2.17;;;10.60;99.90;;;;;;4461985;26;20027;-63
2024/04/10 02:39:40;;;;;;;9.98;2.83;;;10.60;99.90;;;;;;4461143;26;20052;-63
2024/04/10 02:41:41;;;;;;;10.85;2.53;;;10.60;99.90;;;;;;4473372;26;20003;-63
2024/04/10 02:43:41;;;;;;;10.98;2.63;;;10.60;99.90;;;;;;4472721;26;20027;-63
2024/04/10 02:45:52;;;;;;;10.35;2.25;;;10.50;99.90;;;;;;4455448;26;20004;-63
2024/04/10 02:47:52;;;;;;;10.55;2.70;;;10.50;99.90;;;;;;4456243;26;20496;-63
2024/04/10 02:49:53;;;;;;;10.15;2.55;;;10.60;99.90;;;;;;4466402;26;20123;-63
2024/04/10 02:51:54;;;;;;;9.55;3.10;;;10.60;99.90;;;;;;4458208;26;20040;-63
2024/04/10 02:53:54;;;;;;;10.13;2.38;;;10.60;99.90;;;;;;4486376;26;20021;-63
2024/04/10 02:55:55;;;;;;;9.30;2.25;;;10.60;99.90;;;;;;4479019;26;20061;-63
2024/04/10 02:57:55;;;;;;;15.38;3.05;;;10.60;99.90;;;;;;4489645;26;20023;-63
2024/04/10 02:59:56;;;;;;;10.77;2.75;;;10.60;99.90;;;;;;4488261;26;20462;-63
2024/04/10 03:01:56;;;;;;;9.75;2.80;;;10.60;99.90;;;;;;4494385;26;20015;-63
2024/04/10 03:03:57;;;;;;;8.50;2.10;;;10.60;99.90;;;;;;4533519;26;20466;-63
2024/04/10 03:06:05;;;;;;;9.70;2.67;;;10.60;99.90;;;;;;4488781;26;19999;-63
2024/04/10 03:08:07;;;;;;;11.80;2.70;;;10.60;99.90;;;;;;4473230;26;20027;-65
2024/04/10 03:10:09;;;;;;;13.70;2.75;;;10.50;99.90;;;;;;4467530;26;20005;-65
2024/04/10 03:12:11;;;;;;;5.72;1.95;;;10.50;99.90;;;;;;4465785;26;20012;-65
2024/04/10 03:14:12;;;;;;;10.65;2.47;;;10.50;99.90;;;;;;4454793;26;20020;-65
2024/04/10 03:16:13;;;;;;;8.80;2.22;;;10.50;99.90;;;;;;4457274;26;20076;-65
2024/04/10 03:18:13;;;;;;;9.45;2.15;;;10.50;99.90;;;;;;4469857;26;20011;-65
2024/04/10 03:20:14;;;;;;;7.30;2.10;;;10.50;99.90;;;;;;4462638;26;20004;-65
2024/04/10 03:22:15;;;;;;;7.60;2.47;;;10.50;99.90;;;;;;4465962;26;20011;-65
2024/04/10 03:24:15;;;;;;;12.30;2.85;;;10.50;99.90;;;;;;4471313;26;20019;-65
2024/04/10 03:26:16;;;;;;;6.60;1.88;;;10.50;99.90;;;;;;4481030;26;20451;-66
2024/04/10 03:28:16;;;;;;;13.30;2.97;;;10.50;99.90;;;;;;4493469;26;20006;-65
2024/04/10 03:30:17;;;;;;;12.93;2.80;;;10.40;99.90;;;;;;4487277;26;20019;-65
2024/04/10 03:32:18;;;;;;;12.52;3.00;;;10.40;99.90;;;;;;4462269;26;20087;-65
2024/04/10 03:34:18;;;;;;;14.70;3.67;;;10.40;99.90;;;;;;4460132;26;20088;-65
2024/04/10 03:36:19;;;;;;;13.27;3.42;;;10.50;99.90;;;;;;4460080;26;20483;-65
2024/04/10 03:38:20;;;;;;;6.97;3.03;;;10.40;99.90;;;;;;4466346;26;20089;-65
2024/04/10 03:40:22;;;;;;;9.88;2.85;;;10.50;99.90;;;;;;4474460;26;20360;-65
2024/04/10 03:42:22;;;;;;;12.55;2.95;;;10.40;99.90;;;;;;4478987;26;20013;-65
2024/04/10 03:44:23;;;;;;;9.23;2.88;;;10.50;99.90;;;;;;4491822;26;20011;-66
2024/04/10 03:46:23;;;;;;;12.40;2.72;;;10.50;99.90;;;;;;4490314;26;20083;-65
2024/04/10 03:48:24;;;;;;;10.63;2.50;;;10.40;99.90;;;;;;4491730;26;20356;-65
2024/04/10 03:50:25;;;;;;;9.50;2.75;;;10.40;99.90;;;;;;4487173;26;19995;-65
2024/04/10 03:52:25;;;;;;;13.77;3.28;;;10.40;99.90;;;;;;4484031;26;20525;-65
2024/04/10 03:54:26;;;;;;;12.30;2.72;;;10.40;99.90;;;;;;4487476;26;20046;-65
2024/04/10 03:56:26;;;;;;;7.90;2.17;;;10.40;99.90;;;;;;4474855;26;20007;-65
2024/04/10 03:58:27;;;;;;;8.55;2.08;;;10.40;99.90;;;;;;4492881;26;20379;-65
2024/04/10 04:00:28;;;;;;;10.95;2.88;;;10.40;99.90;;;;;;4481043;26;20004;-65
2024/04/10 04:02:28;;;;;;;7.40;2.67;;;10.40;99.90;;;;;;4481434;26;20083;-65
2024/04/10 04:04:29;;;;;;;10.35;3.10;;;10.40;99.90;;;;;;4489443;26;20034;-65
2024/04/10 04:06:33;;;;;;;13.43;3.25;;;10.50;99.90;;;;;;4478631;26;20000;-65
2024/04/10 04:08:33;;;;;;;10.85;2.78;;;10.50;99.90;;;;;;4474798;26;20424;-65
2024/04/10 04:10:34;;;;;;;7.55;1.95;;;10.50;99.90;;;;;;4483137;26;20043;-65
2024/04/10 04:12:34;;;;;;;14.52;2.45;;;10.50;99.90;;;;;;4486866;26;20000;-65
2024/04/10 04:14:35;;;;;;;6.85;2.05;;;10.50;99.90;;;;;;4494413;26;20006;-65
2024/04/10 04:16:36;;;;;;;10.02;2.78;;;10.60;99.90;;;;;;4486182;26;20433;-64
2024/04/10 04:18:36;;;;;;;13.70;3.17;;;10.60;99.90;;;;;;4497826;26;20012;-67
2024/04/10 04:20:37;;;;;;;6.72;2.28;;;10.60;99.90;;;;;;4481879;26;20027;-67
2024/04/10 04:22:37;;;;;;;12.88;2.20;;;10.60;99.90;;;;;;4486780;26;20069;-66
2024/04/10 04:24:38;;;;;;;7.88;2.00;;;10.60;99.90;;;;;;4476402;26;20103;-66
2024/04/10 04:26:39;;;;;;;8.38;2.40;;;10.60;99.90;;;;;;4490753;26;20011;-67
2024/04/10 04:28:39;;;;;;;7.40;2.25;;;10.50;99.90;;;;;;4482247;26;20312;-66
2024/04/10 04:30:47;;;;;;;8.98;2.40;;;10.50;99.90;;;;;;4476062;26;20033;-67
2024/04/10 04:32:47;;;;;;;10.73;3.08;;;10.50;99.90;;;;;;4452815;26;20040;-66
2024/04/10 04:34:48;;;;;;;10.00;1.90;;;10.50;99.90;;;;;;4455514;26;20023;-66
2024/04/10 04:36:49;;;;;;;10.10;2.83;;;10.50;99.90;;;;;;4456530;26;20008;-66
2024/04/10 04:38:49;;;;;;;8.80;2.33;;;10.50;99.90;;;;;;4467137;26;20008;-66
2024/04/10 04:40:50;;;;;;;10.60;2.60;;;10.50;99.90;;;;;;4465799;26;20010;-67
2024/04/10 04:42:51;;;;;;;7.82;2.30;;;10.50;99.90;;;;;;4463986;26;20020;-66
2024/04/10 04:44:52;;;;;;;10.82;2.53;;;10.50;99.90;;;;;;4450104;26;20748;-66
2024/04/10 04:46:53;;;;;;;8.82;2.40;;;10.50;99.90;;;;;;4454758;26;20016;-66
2024/04/10 04:48:54;;;;;;;8.57;2.50;;;10.60;99.90;;;;;;4465343;26;20367;-66
2024/04/10 04:50:54;;;;;;;15.65;2.80;;;10.50;99.90;;;;;;4499785;26;20371;-66
2024/04/10 04:52:55;;;;;;;15.45;3.30;;;10.50;99.90;;;;;;4471031;26;20015;-66
2024/04/10 04:54:55;;;;;;;13.48;2.80;;;10.40;99.90;;;;;;4479459;26;20007;-68
2024/04/10 04:56:56;;;;;;;8.70;2.45;;;10.40;99.90;;;;;;4495790;26;20018;-71
2024/04/10 04:58:56;;;;;;;7.35;1.92;;;10.40;99.90;;;;;;4487674;26;20351;-69
2024/04/10 05:00:57;;;;;;;7.78;2.50;;;10.40;99.90;;;;;;4475426;26;20080;-68
2024/04/10 05:02:59;;;;;;;11.65;2.90;;;10.40;99.90;;;;;;4479787;26;20015;-69
2024/04/10 05:05:02;;;;;;;7.38;2.03;;;10.40;99.90;;;;;;4485248;26;20018;-69
2024/04/10 05:07:04;;;;;;;17.50;3.10;;;10.40;99.90;;;;;;4487201;26;20450;-69
2024/04/10 05:09:09;;;;;;;9.32;2.55;;;10.40;99.90;;;;;;4479157;26;20079;-68
2024/04/10 05:11:10;;;;;;;10.77;3.05;;;10.40;99.90;;;;;;4482674;26;20007;-68
2024/04/10 05:13:10;;;;;;;6.97;2.08;;;10.50;99.90;;;;;;4485290;26;20593;-69
2024/04/10 05:15:12;;;;;;;15.32;2.92;;;10.50;99.90;;;;;;4515176;26;20015;-68
2024/04/10 05:17:13;;;;;;;10.98;2.75;;;10.50;99.90;;;;;;4483971;26;20015;-69
2024/04/10 05:19:13;;;;;;;5.10;2.15;;;10.50;99.90;;;;;;4490728;26;20007;-69
2024/04/10 05:21:14;;;;;;;8.18;2.53;;;10.50;99.90;;;;;;4489202;26;20000;-69
2024/04/10 05:23:15;;;;;;;12.40;3.03;;;10.50;99.90;;;;;;4471820;26;20428;-69
2024/04/10 05:25:15;;;;;;;6.72;2.08;;;10.50;99.90;;;;;;4511705;26;20010;-69
2024/04/10 05:27:27;;;;;;;11.35;2.65;;;10.50;99.90;;;;;;4478545;26;20003;-63
2024/04/10 05:29:28;;;;;;;12.20;2.20;;;10.50;99.90;;;;;;4446156;26;20068;-64
2024/04/10 05:31:28;;;;;;;6.70;2.05;;;10.50;99.90;;;;;;4453886;25;20457;-64
2024/04/10 05:33:29;;;;;;;6.93;2.38;;;10.50;99.90;;;;;;4479030;26;20050;-64
2024/04/10 05:35:30;;;;;;;7.88;2.30;;;10.60;99.90;;;;;;4470943;26;20516;-64
2024/04/10 05:37:31;;;;;;;11.70;2.58;;;10.70;99.90;;;;;;4474855;26;20022;-64
2024/04/10 05:39:33;;;;;;;5.68;1.80;;;10.70;99.90;;;;;;4479501;26;20547;-64
2024/04/10 05:41:34;;;;;;;7.05;2.15;;;10.70;99.90;;;;;;4471701;26;20007;-64
2024/04/10 05:43:34;;;;;;;6.32;1.98;;;10.70;99.90;;;;;;4473052;26;20420;-64
2024/04/10 05:45:36;;;;;;;10.05;2.60;;;10.80;99.90;;;;;;4482511;26;20039;-64
2024/04/10 05:47:41;;;;;;;5.65;2.42;;;10.70;99.90;;;;;;4478259;26;20705;-64
2024/04/10 05:49:42;;;;;;;9.07;2.72;;;10.70;99.90;;;;;;4496757;26;20439;-64
2024/04/10 05:51:43;;;;;;;11.18;2.22;;;10.70;99.90;;;;;;4471768;26;20000;-64
2024/04/10 05:53:43;;;;;;;7.10;2.28;;;10.80;99.90;;;;;;4478561;26;20003;-64
2024/04/10 05:55:44;;;;;;;6.93;1.77;;;10.80;99.90;;;;;;4479335;26;20019;-64
2024/04/10 05:57:47;;;;;;;6.60;2.03;;;10.80;99.90;;;;;;4472111;26;20005;-64
2024/04/10 05:59:51;;;;;;;5.53;1.98;;;10.80;99.90;;;;;;4454598;26;20387;-65
2024/04/10 06:01:53;;;;;;;7.57;2.45;;;10.80;99.90;;;;;;4444257;26;20000;-64
2024/04/10 06:03:53;;;;;;;12.52;2.88;;;10.80;99.90;;;;;;4474947;25;20450;-64
2024/04/10 06:05:54;;;;;;;11.43;2.38;;;10.80;99.90;;;;;;4464111;26;20024;-64
2024/04/10 06:07:55;;;;;;;7.47;2.13;;;10.90;99.90;;;;;;4468809;26;20390;-64
2024/04/10 06:09:57;;;;;;;11.02;2.70;;;10.90;99.90;;;;;;4453030;26;20411;-64
2024/04/10 06:11:57;;;;;;;12.73;3.17;;;10.90;99.90;;;;;;4465426;26;20028;-64
2024/04/10 06:13:58;;;;;;;5.88;2.15;;;11.00;99.90;;;;;;4473548;26;20115;-64
2024/04/10 06:16:00;;;;;;;4.50;1.70;;;11.00;99.90;;;;;;4458535;26;20020;-64
2024/04/10 06:18:01;;;;;;;5.72;2.08;;;11.10;99.90;;;;;;4460345;26;20001;-64
2024/04/10 06:20:05;;;;;;;15.45;3.10;;;11.20;99.90;;;;;;4457424;26;20474;-64
2024/04/10 06:22:05;;;;;;;8.55;2.35;;;11.20;99.90;;;;;;4475060;26;20003;-64
2024/04/10 06:24:07;;;;;;;10.55;3.00;;;11.30;99.90;;;;;;4468132;26;19999;-64
2024/04/10 06:26:08;;;;;;;5.82;2.22;;;11.30;99.90;;;;;;4475811;26;20016;-64
2024/04/10 06:28:09;;;;;;;6.43;2.10;;;11.30;99.90;;;;;;4460100;26;20012;-64
2024/04/10 06:30:10;;;;;;;7.20;1.90;;;11.40;99.90;;;;;;4447973;26;20712;-65
2024/04/10 06:32:12;;;;;;;12.30;2.58;;;11.40;99.90;;;;;;4469066;26;20088;-64
2024/04/10 06:34:13;;;;;;;6.67;2.10;;;11.50;99.90;;;;;;4465634;26;20000;-64
2024/04/10 06:36:13;;;;;;;9.10;2.42;;;11.40;99.90;;;;;;4450325;26;20070;-64
2024/04/10 06:38:14;;;;;;;10.90;3.00;;;11.40;99.90;;;;;;4461792;26;20014;-75
2024/04/10 06:40:15;;;;;;;8.48;2.08;;;11.40;99.90;;;;;;4441766;26;20349;-76
2024/04/10 06:42:15;;;;;;;5.78;1.98;;;11.40;99.90;;;;;;4445156;26;20008;-75
2024/04/10 06:44:16;;;;;;;6.53;2.22;;;11.40;99.90;;;;;;4440952;26;20008;-75
2024/04/10 06:46:17;;;;;;;8.15;2.35;;;11.40;99.90;;;;;;4443262;26;20008;-75
2024/04/10 06:48:17;;;;;;;11.68;2.30;;;11.40;99.90;;;;;;4443903;26;20441;-75
2024/04/10 06:50:18;;;;;;;9.88;2.63;;;11.40;99.90;;;;;;4442067;26;20035;-75
2024/04/10 06:52:18;;;;;;;9.25;2.50;;;11.40;99.90;;;;;;4440266;26;20054;-67
2024/04/10 06:54:21;;;;;;;7.63;2.40;;;11.40;99.90;;;;;;4444144;26;20014;-74
2024/04/10 06:56:23;;;;;;;7.85;2.45;;;11.40;99.90;;;;;;4456556;26;20023;-74
2024/04/10 06:58:25;;;;;;;9.13;2.70;;;11.50;99.90;;;;;;4471834;25;20015;-75
2024/04/10 07:00:26;;;;;;;5.80;2.10;;;11.50;99.90;;;;;;4440929;26;20008;-75
2024/04/10 07:02:26;;;;;;;9.15;2.65;;;11.50;99.90;;;;;;4439803;26;20082;-75
2024/04/10 07:04:27;;;;;;;9.95;2.50;;;11.60;99.90;;;;;;4444469;26;20086;-75
2024/04/10 07:06:28;;;;;;;11.60;2.80;;;11.60;99.90;;;;;;4431265;26;20043;-75
2024/04/10 07:08:28;;;;;;;10.80;3.03;;;11.70;99.90;;;;;;4512046;25;20450;-75
2024/04/10 07:10:29;;;;;;;10.18;2.70;;;11.70;99.90;;;;;;4453163;26;20107;-75
2024/04/10 07:12:30;;;;;;;10.98;2.83;;;11.70;99.90;;;;;;4479802;26;20007;-75
2024/04/10 07:14:34;;;;;;;8.23;2.30;;;11.80;99.90;;;;;;4484943;26;20019;-75
2024/04/10 07:16:34;;;;;;;7.80;2.40;;;11.80;99.90;;;;;;4484348;26;20022;-75
2024/04/10 07:18:35;;;;;;;12.20;2.88;;;11.80;99.90;;;;;;4476919;26;20635;-73
2024/04/10 07:20:36;;;;;;;12.00;2.78;;;11.80;99.90;;;;;;4478170;26;20003;-73
2024/04/10 07:22:36;;;;;;;11.10;2.60;;;11.90;99.90;;;;;;4473228;26;19999;-73
2024/04/10 07:24:37;;;;;;;7.65;2.40;;;11.90;99.90;;;;;;4469046;26;20041;-73
2024/04/10 07:26:38;;;;;;;13.88;2.95;;;11.90;99.90;;;;;;4441052;26;20040;-73
2024/04/10 07:28:43;;;;;;;10.15;2.63;;;12.00;99.90;;;;;;4537614;25;21161;-72
2024/04/10 07:30:50;;;;;;;11.52;2.90;;;12.00;99.90;;;;;;4469125;26;20011;-72
2024/04/10 07:32:51;;;;;;;10.35;3.15;;;12.00;99.90;;;;;;4466100;26;20480;-72
2024/04/10 07:34:51;;;;;;;9.75;2.92;;;11.90;99.90;;;;;;4453823;26;20019;-73
2024/04/10 07:36:52;;;;;;;10.40;2.67;;;11.90;99.90;;;;;;4459880;26;20050;-73
2024/04/10 07:38:54;;;;;;;9.02;2.72;;;11.80;99.90;;;;;;4469826;26;20015;-72
2024/04/10 07:40:56;;;;;;;16.20;3.47;;;11.90;99.90;;;;;;4455371;26;20000;-76
2024/04/10 07:42:57;;;;;;;9.23;2.10;;;11.90;99.90;;;;;;4477115;26;20003;-73
2024/04/10 07:44:57;;;;;;;8.35;2.58;;;11.90;99.90;;;;;;4465909;26;20022;-73
2024/04/10 07:46:58;;;;;;;8.38;2.42;;;12.00;99.90;;;;;;4468176;26;20011;-62
2024/04/10 07:48:58;;;;;;;8.30;2.67;;;12.10;99.90;;;;;;4464348;26;20524;-62
2024/04/10 07:51:05;;;;;;;9.20;2.67;;;12.10;99.90;;;;;;4461783;26;20018;-62
2024/04/10 07:53:06;;;;;;;9.13;2.50;;;12.30;99.90;;;;;;4479273;25;20430;-62
2024/04/10 07:55:07;;;;;;;7.57;2.22;;;12.40;99.90;;;;;;4461419;26;20344;-62
2024/04/10 07:57:07;;;;;;;10.98;2.63;;;12.60;99.90;;;;;;4469636;26;20004;-62
2024/04/10 07:59:08;;;;;;;10.50;2.92;;;12.80;99.90;;;;;;4468147;26;20018;-62
2024/04/10 08:01:09;;;;;;;7.95;2.13;;;13.00;99.90;;;;;;4472912;25;24794;-62
2024/04/10 08:03:10;;;;;;;10.50;2.75;;;13.20;99.90;;;;;;4467539;26;20030;-62
2024/04/10 08:05:11;;;;;;;10.63;2.95;;;13.30;99.90;;;;;;4471506;26;20008;-63
2024/04/10 08:07:11;;;;;;;9.20;2.15;;;13.50;99.90;;;;;;4452641;26;19999;-62
2024/04/10 08:09:12;;;;;;;10.13;2.80;;;13.70;99.90;;;;;;4458863;26;20050;-63
2024/04/10 08:11:17;;;;;;;11.45;2.63;;;13.80;99.90;;;;;;4474617;26;20018;-63
2024/04/10 08:13:17;;;;;;;12.32;3.03;;;14.00;99.90;;;;;;4472489;26;20003;-62
2024/04/10 08:15:18;;;;;;;10.98;3.13;;;14.10;99.90;;;;;;4471615;26;19999;-62
2024/04/10 08:17:20;;;;;;;9.60;2.40;;;14.10;99.90;;;;;;4453511;26;20014;-62
2024/04/10 08:19:20;;;;;;;12.27;3.03;;;14.30;99.90;;;;;;4454091;26;20015;-62
2024/04/10 08:21:21;;;;;;;12.05;3.03;;;14.40;99.90;;;;;;4433973;26;20484;-63
2024/04/10 08:23:22;;;;;;;8.95;2.53;;;14.50;99.90;;;;;;4454370;26;20036;-62
2024/04/10 08:25:22;;;;;;;13.43;2.55;;;14.50;99.90;;;;;;4446466;26;20449;-62
2024/04/10 08:27:24;;;;;;;9.77;2.15;;;14.60;99.90;;;;;;4445304;26;20000;-62
2024/04/10 08:29:24;;;;;;;11.98;2.75;;;14.70;99.90;;;;;;4542126;25;20002;-62
2024/04/10 08:31:27;;;;;;;11.85;2.95;;;14.70;99.90;;;;;;4472274;26;20460;-62
2024/04/10 08:33:28;;;;;;;10.98;2.78;;;14.80;99.90;;;;;;4424056;26;20335;-62
2024/04/10 08:35:29;;;;;;;9.27;2.63;;;14.70;99.90;;;;;;4434575;26;20034;-61
2024/04/10 08:37:29;;;;;;;11.60;2.90;;;14.80;99.90;;;;;;4471071;26;20023;-62
2024/04/10 08:39:30;;;;;;;5.70;2.30;;;15.00;99.90;;;;;;4443176;26;20013;-62
2024/04/10 08:41:33;;;;;;;8.30;2.33;;;15.10;99.90;;;;;;4452531;26;20005;-62
2024/04/10 08:43:36;;;;;;;10.65;2.92;;;15.20;99.90;;;;;;4453391;26;20706;-61
2024/04/10 08:45:37;;;;;;;11.25;2.78;;;15.20;99.90;;;;;;4468593;25;19996;-62
2024/04/10 08:47:38;;;;;;;8.85;2.78;;;15.30;99.90;;;;;;4426908;26;20005;-62
2024/04/10 08:49:40;;;;;;;8.63;2.35;;;15.30;99.90;;;;;;4466388;26;20043;-62
2024/04/10 08:51:42;;;;;;;6.77;2.23;;;15.10;99.90;;;;;;4456269;26;20019;-62
2024/04/10 08:53:45;;;;;;;8.90;2.15;;;15.20;99.90;;;;;;4451801;26;20008;-62
2024/04/10 08:55:46;;;;;;;9.68;2.60;;;15.20;99.90;;;;;;4453579;26;20395;-63
2024/04/10 08:57:47;;;;;;;8.85;2.78;;;15.20;99.90;;;;;;4454721;26;20016;-68
2024/04/10 08:59:47;;;;;;;11.77;2.75;;;15.10;99.90;;;;;;4452803;26;20007;-68
2024/04/10 09:01:48;;;;;;;5.88;2.05;;;15.10;99.90;;;;;;4441841;26;20028;-68
2024/04/10 09:03:49;;;;;;;8.95;2.60;;;15.10;99.90;;;;;;4451377;26;20016;-69
2024/04/10 09:05:49;;;;;;;6.43;2.30;;;15.00;99.90;;;;;;4443536;26;20464;-68
2024/04/10 09:08:01;;;;;;;9.32;2.60;;;15.00;99.90;;;;;;4438427;26;20040;-66
2024/04/10 09:10:09;;;;;;;6.78;1.85;;;15.10;99.90;;;;;;4454546;26;20015;-68
2024/04/10 09:12:10;;;;;;;7.95;2.15;;;15.20;99.90;;;;;;4463656;26;20027;-69
2024/04/10 09:14:11;;;;;;;11.55;2.92;;;15.30;99.90;;;;;;4459255;26;20364;-68
2024/04/10 09:16:12;;;;;;;6.97;2.50;;;15.30;99.90;;;;;;4448115;26;20023;-69
2024/04/10 09:18:12;;;;;;;10.07;2.40;;;15.20;99.90;;;;;;4455407;26;20411;-69
2024/04/10 09:20:16;;;;;;;6.53;2.10;;;15.30;99.90;;;;;;4454141;26;20077;-69
2024/04/10 09:22:17;;;;;;;8.68;2.53;;;15.30;99.90;;;;;;4482181;26;20059;-68
2024/04/10 09:24:27;;;;;;;11.73;3.08;;;15.30;99.90;;;;;;4451172;26;20008;-68
2024/04/10 09:26:28;;;;;;;5.45;1.95;;;15.10;99.90;;;;;;4477813;26;20030;-69
2024/04/10 09:28:29;;;;;;;10.07;2.70;;;15.10;99.90;;;;;;4446878;26;20418;-69
2024/04/10 09:30:34;;;;;;;6.18;1.88;;;15.10;99.90;;;;;;4459609;26;20011;-68
2024/04/10 09:32:36;;;;;;;7.50;2.30;;;15.10;99.90;;;;;;4450784;26;20519;-69
2024/04/10 09:34:39;;;;;;;12.35;2.78;;;15.00;99.90;;;;;;4463422;26;20047;-69
2024/04/10 09:36:40;;;;;;;6.10;1.80;;;15.00;99.90;;;;;;4448823;26;20457;-69
2024/04/10 09:38:41;;;;;;;7.82;2.47;;;14.90;99.90;;;;;;4466043;26;20456;-69
2024/04/10 09:40:55;;;;;;;5.28;1.90;;;15.00;99.90;;;;;;4451228;26;20008;-69
2024/04/10 09:43:05;;;;;;;5.45;1.88;;;15.00;99.90;;;;;;4475151;26;20015;-69
2024/04/10 09:45:21;;;;;;;11.82;2.53;;;15.00;99.90;;;;;;4475839;26;20005;-70
2024/04/10 09:47:24;;;;;;;10.57;2.22;;;15.00;99.90;;;;;;4481097;26;20021;-69
2024/04/10 09:49:40;;;;;;;5.90;1.90;;;15.00;99.90;;;;;;4481443;26;20012;-69
2024/04/10 09:51:42;;;;;;;11.70;2.30;;;15.10;99.90;;;;;;4479841;26;20092;-69
2024/04/10 09:53:43;;;;;;;9.25;2.25;;;15.20;99.90;;;;;;4473132;26;20023;-69
2024/04/10 09:55:44;;;;;;;7.00;1.90;;;15.20;99.90;;;;;;4490352;26;20339;-69
2024/04/10 09:57:45;;;;;;;9.90;2.10;;;15.30;99.90;;;;;;4482541;26;20437;-69
2024/04/10 09:59:46;;;;;;;6.25;1.88;;;15.40;99.90;;;;;;4475721;26;20071;-69
2024/04/10 10:01:48;;;;;;;5.68;2.03;;;15.40;99.90;;;;;;4465699;26;20076;-66
2024/04/10 10:03:58;;;;;;;6.05;1.95;;;15.40;99.90;;;;;;4459372;26;20013;-68
2024/04/10 10:06:07;;;;;;;10.80;2.47;;;15.20;99.90;;;;;;4474847;26;20004;-69
2024/04/10 10:08:14;;;;;;;5.07;2.05;;;15.30;99.90;;;;;;4450443;26;20096;-64
2024/04/10 10:12:00;;;;;;;8.52;2.10;;;15.20;99.90;;;;;;4501207;25;20353;-64
2024/04/10 10:14:03;;;;;;;6.43;2.13;;;15.30;99.90;;;;;;4508223;25;20004;-63
2024/04/10 10:16:04;;;;;;;7.30;2.00;;;15.30;99.90;;;;;;4506185;25;20026;-63
2024/04/10 10:18:04;;;;;;;7.65;2.28;;;15.40;99.90;;;;;;4504076;25;20015;-63
2024/04/10 10:20:18;;;;;;;6.63;2.38;;;15.40;99.90;;;;;;4503454;25;20241;-63
2024/04/10 10:22:19;;;;;;;5.82;2.03;;;15.40;99.90;;;;;;4504654;25;20435;-64
2024/04/10 10:24:19;;;;;;;10.18;2.40;;;15.40;99.90;;;;;;4496548;25;20000;-64
2024/04/10 10:26:20;;;;;;;8.25;1.80;;;15.50;99.90;;;;;;4501063;26;19999;-63
2024/04/10 10:28:21;;;;;;;5.57;1.92;;;15.60;99.90;;;;;;4537025;25;20082;-63
2024/04/10 10:30:22;;;;;;;5.03;1.80;;;15.60;99.90;;;;;;4516262;26;20025;-64
2024/04/10 10:32:23;;;;;;;6.72;2.20;;;15.60;99.90;;;;;;4504501;26;20010;-64